sensor_id;sensor_type;location;lat;lon;timestamp;P1;durP1;ratioP1;P2;durP2;ratioP2
32633;SDS011;19043;51.012;5.648;2023-12-20T00:02:06;10.57;;;6.10;;
32633;SDS011;19043;51.012;5.648;2023-12-20T00:04:31;11.40;;;6.38;;
32633;SDS011;19043;51.012;5.648;2023-12-20T00:06:57;13.02;;;6.30;;
32633;SDS011;19043;51.012;5.648;2023-12-20T00:09:22;8.07;;;4.87;;
32633;SDS011;19043;51.012;5.648;2023-12-20T00:11:47;13.27;;;4.65;;
32633;SDS011;19043;51.012;5.648;2023-12-20T00:14:12;7.25;;;3.85;;
32633;SDS011;19043;51.012;5.648;2023-12-20T00:16:38;11.20;;;3.17;;
32633;SDS011;19043;51.012;5.648;2023-12-20T00:19:03;7.37;;;2.77;;
32633;SDS011;19043;51.012;5.648;2023-12-20T00:21:28;6.18;;;2.58;;
32633;SDS011;19043;51.012;5.648;2023-12-20T00:23:53;3.95;;;1.95;;
32633;SDS011;19043;51.012;5.648;2023-12-20T00:26:18;15.07;;;2.73;;
32633;SDS011;19043;51.012;5.648;2023-12-20T00:28:44;8.50;;;2.42;;
32633;SDS011;19043;51.012;5.648;2023-12-20T00:31:09;7.87;;;2.23;;
32633;SDS011;19043;51.012;5.648;2023-12-20T00:33:34;9.25;;;1.52;;
32633;SDS011;19043;51.012;5.648;2023-12-20T00:35:59;5.50;;;1.67;;
32633;SDS011;19043;51.012;5.648;2023-12-20T00:38:25;6.10;;;1.83;;
32633;SDS011;19043;51.012;5.648;2023-12-20T00:40:50;6.43;;;1.95;;
32633;SDS011;19043;51.012;5.648;2023-12-20T00:43:15;6.25;;;1.75;;
32633;SDS011;19043;51.012;5.648;2023-12-20T00:45:41;3.30;;;1.27;;
32633;SDS011;19043;51.012;5.648;2023-12-20T00:48:06;5.05;;;1.60;;
32633;SDS011;19043;51.012;5.648;2023-12-20T00:50:32;6.53;;;1.70;;
32633;SDS011;19043;51.012;5.648;2023-12-20T00:52:57;4.85;;;1.42;;
32633;SDS011;19043;51.012;5.648;2023-12-20T00:55:22;6.32;;;2.08;;
32633;SDS011;19043;51.012;5.648;2023-12-20T00:57:47;7.22;;;2.05;;
32633;SDS011;19043;51.012;5.648;2023-12-20T01:00:13;6.20;;;2.13;;
32633;SDS011;19043;51.012;5.648;2023-12-20T01:02:38;5.75;;;2.40;;
32633;SDS011;19043;51.012;5.648;2023-12-20T01:05:03;7.13;;;1.58;;
32633;SDS011;19043;51.012;5.648;2023-12-20T01:07:29;7.85;;;1.77;;
32633;SDS011;19043;51.012;5.648;2023-12-20T01:09:54;4.90;;;1.70;;
32633;SDS011;19043;51.012;5.648;2023-12-20T01:12:19;8.00;;;1.83;;
32633;SDS011;19043;51.012;5.648;2023-12-20T01:14:45;6.90;;;1.98;;
32633;SDS011;19043;51.012;5.648;2023-12-20T01:17:10;8.93;;;2.25;;
32633;SDS011;19043;51.012;5.648;2023-12-20T01:19:35;7.33;;;2.00;;
32633;SDS011;19043;51.012;5.648;2023-12-20T01:22:01;3.78;;;1.77;;
32633;SDS011;19043;51.012;5.648;2023-12-20T01:24:26;5.60;;;1.52;;
32633;SDS011;19043;51.012;5.648;2023-12-20T01:26:51;10.00;;;2.75;;
32633;SDS011;19043;51.012;5.648;2023-12-20T01:29:16;6.20;;;1.55;;
32633;SDS011;19043;51.012;5.648;2023-12-20T01:31:42;7.85;;;2.05;;
32633;SDS011;19043;51.012;5.648;2023-12-20T01:34:07;10.98;;;1.88;;
32633;SDS011;19043;51.012;5.648;2023-12-20T01:36:32;8.20;;;2.07;;
32633;SDS011;19043;51.012;5.648;2023-12-20T01:38:57;10.97;;;2.33;;
32633;SDS011;19043;51.012;5.648;2023-12-20T01:41:23;7.63;;;2.40;;
32633;SDS011;19043;51.012;5.648;2023-12-20T01:43:48;10.57;;;2.60;;
32633;SDS011;19043;51.012;5.648;2023-12-20T01:46:13;6.18;;;1.80;;
32633;SDS011;19043;51.012;5.648;2023-12-20T01:48:39;8.63;;;2.28;;
32633;SDS011;19043;51.012;5.648;2023-12-20T01:51:05;6.80;;;1.60;;
32633;SDS011;19043;51.012;5.648;2023-12-20T01:53:30;10.73;;;2.78;;
32633;SDS011;19043;51.012;5.648;2023-12-20T01:55:57;8.82;;;2.15;;
32633;SDS011;19043;51.012;5.648;2023-12-20T01:58:23;4.75;;;1.80;;
32633;SDS011;19043;51.012;5.648;2023-12-20T02:00:49;9.05;;;2.38;;
32633;SDS011;19043;51.012;5.648;2023-12-20T02:03:15;6.47;;;1.60;;
32633;SDS011;19043;51.012;5.648;2023-12-20T02:05:40;8.75;;;1.83;;
32633;SDS011;19043;51.012;5.648;2023-12-20T02:08:06;7.82;;;2.20;;
32633;SDS011;19043;51.012;5.648;2023-12-20T02:10:31;7.60;;;2.25;;
32633;SDS011;19043;51.012;5.648;2023-12-20T02:12:57;7.68;;;1.80;;
32633;SDS011;19043;51.012;5.648;2023-12-20T02:15:22;10.13;;;2.85;;
32633;SDS011;19043;51.012;5.648;2023-12-20T02:17:47;6.60;;;2.08;;
32633;SDS011;19043;51.012;5.648;2023-12-20T02:20:13;11.35;;;2.60;;
32633;SDS011;19043;51.012;5.648;2023-12-20T02:22:38;15.02;;;2.78;;
32633;SDS011;19043;51.012;5.648;2023-12-20T02:25:04;10.83;;;2.83;;
32633;SDS011;19043;51.012;5.648;2023-12-20T02:27:29;7.47;;;2.10;;
32633;SDS011;19043;51.012;5.648;2023-12-20T02:29:55;7.32;;;2.65;;
32633;SDS011;19043;51.012;5.648;2023-12-20T02:32:20;10.70;;;2.80;;
32633;SDS011;19043;51.012;5.648;2023-12-20T02:34:49;10.18;;;2.83;;
32633;SDS011;19043;51.012;5.648;2023-12-20T02:37:14;8.75;;;2.22;;
32633;SDS011;19043;51.012;5.648;2023-12-20T02:39:39;8.07;;;3.33;;
32633;SDS011;19043;51.012;5.648;2023-12-20T02:42:04;11.45;;;3.38;;
32633;SDS011;19043;51.012;5.648;2023-12-20T02:44:30;11.38;;;2.80;;
32633;SDS011;19043;51.012;5.648;2023-12-20T02:46:55;5.90;;;2.33;;
32633;SDS011;19043;51.012;5.648;2023-12-20T02:49:20;9.60;;;3.40;;
32633;SDS011;19043;51.012;5.648;2023-12-20T02:51:45;16.23;;;3.42;;
32633;SDS011;19043;51.012;5.648;2023-12-20T02:54:11;12.10;;;3.20;;
32633;SDS011;19043;51.012;5.648;2023-12-20T02:56:36;8.88;;;2.97;;
32633;SDS011;19043;51.012;5.648;2023-12-20T02:59:02;6.43;;;2.60;;
32633;SDS011;19043;51.012;5.648;2023-12-20T03:01:28;10.38;;;3.33;;
32633;SDS011;19043;51.012;5.648;2023-12-20T03:03:53;7.13;;;3.25;;
32633;SDS011;19043;51.012;5.648;2023-12-20T03:06:18;7.88;;;3.25;;
32633;SDS011;19043;51.012;5.648;2023-12-20T03:08:44;9.73;;;3.10;;
32633;SDS011;19043;51.012;5.648;2023-12-20T03:11:09;12.73;;;3.08;;
32633;SDS011;19043;51.012;5.648;2023-12-20T03:13:34;11.67;;;4.03;;
32633;SDS011;19043;51.012;5.648;2023-12-20T03:15:59;11.30;;;3.50;;
32633;SDS011;19043;51.012;5.648;2023-12-20T03:18:25;5.80;;;3.08;;
32633;SDS011;19043;51.012;5.648;2023-12-20T03:20:50;9.57;;;3.03;;
32633;SDS011;19043;51.012;5.648;2023-12-20T03:23:15;10.20;;;3.58;;
32633;SDS011;19043;51.012;5.648;2023-12-20T03:25:41;11.80;;;3.17;;
32633;SDS011;19043;51.012;5.648;2023-12-20T03:28:06;9.00;;;3.95;;
32633;SDS011;19043;51.012;5.648;2023-12-20T03:30:31;14.98;;;3.63;;
32633;SDS011;19043;51.012;5.648;2023-12-20T03:32:57;11.00;;;3.67;;
32633;SDS011;19043;51.012;5.648;2023-12-20T03:35:22;11.23;;;3.53;;
32633;SDS011;19043;51.012;5.648;2023-12-20T03:37:47;11.95;;;3.65;;
32633;SDS011;19043;51.012;5.648;2023-12-20T03:40:12;9.90;;;3.10;;
32633;SDS011;19043;51.012;5.648;2023-12-20T03:42:37;6.22;;;3.17;;
32633;SDS011;19043;51.012;5.648;2023-12-20T03:45:03;10.23;;;2.67;;
32633;SDS011;19043;51.012;5.648;2023-12-20T03:47:28;12.35;;;2.95;;
32633;SDS011;19043;51.012;5.648;2023-12-20T03:49:53;7.03;;;3.20;;
32633;SDS011;19043;51.012;5.648;2023-12-20T03:52:18;12.20;;;2.80;;
32633;SDS011;19043;51.012;5.648;2023-12-20T03:54:44;11.43;;;2.70;;
32633;SDS011;19043;51.012;5.648;2023-12-20T03:57:09;12.02;;;3.17;;
32633;SDS011;19043;51.012;5.648;2023-12-20T03:59:35;9.10;;;3.08;;
32633;SDS011;19043;51.012;5.648;2023-12-20T04:02:00;10.30;;;2.88;;
32633;SDS011;19043;51.012;5.648;2023-12-20T04:04:25;11.53;;;3.00;;
32633;SDS011;19043;51.012;5.648;2023-12-20T04:06:50;7.20;;;2.87;;
32633;SDS011;19043;51.012;5.648;2023-12-20T04:09:15;11.70;;;3.10;;
32633;SDS011;19043;51.012;5.648;2023-12-20T04:11:41;12.50;;;3.33;;
32633;SDS011;19043;51.012;5.648;2023-12-20T04:14:06;8.50;;;2.83;;
32633;SDS011;19043;51.012;5.648;2023-12-20T04:16:32;12.15;;;3.35;;
32633;SDS011;19043;51.012;5.648;2023-12-20T04:18:57;8.95;;;3.10;;
32633;SDS011;19043;51.012;5.648;2023-12-20T04:21:22;15.20;;;3.37;;
32633;SDS011;19043;51.012;5.648;2023-12-20T04:23:47;4.90;;;2.63;;
32633;SDS011;19043;51.012;5.648;2023-12-20T04:26:13;5.95;;;2.53;;
32633;SDS011;19043;51.012;5.648;2023-12-20T04:28:38;7.53;;;3.03;;
32633;SDS011;19043;51.012;5.648;2023-12-20T04:31:03;7.07;;;2.70;;
32633;SDS011;19043;51.012;5.648;2023-12-20T04:33:29;7.93;;;2.97;;
32633;SDS011;19043;51.012;5.648;2023-12-20T04:35:54;7.25;;;2.75;;
32633;SDS011;19043;51.012;5.648;2023-12-20T04:38:19;11.10;;;3.17;;
32633;SDS011;19043;51.012;5.648;2023-12-20T04:40:45;8.50;;;2.85;;
32633;SDS011;19043;51.012;5.648;2023-12-20T04:43:10;6.93;;;2.53;;
32633;SDS011;19043;51.012;5.648;2023-12-20T04:45:35;10.90;;;3.05;;
32633;SDS011;19043;51.012;5.648;2023-12-20T04:48:01;8.70;;;2.40;;
32633;SDS011;19043;51.012;5.648;2023-12-20T04:50:27;8.95;;;2.60;;
32633;SDS011;19043;51.012;5.648;2023-12-20T04:52:52;8.13;;;2.70;;
32633;SDS011;19043;51.012;5.648;2023-12-20T04:55:17;8.50;;;3.25;;
32633;SDS011;19043;51.012;5.648;2023-12-20T04:57:42;12.90;;;3.10;;
32633;SDS011;19043;51.012;5.648;2023-12-20T05:00:08;11.40;;;2.80;;
32633;SDS011;19043;51.012;5.648;2023-12-20T05:02:34;13.18;;;3.28;;
32633;SDS011;19043;51.012;5.648;2023-12-20T05:05:00;10.95;;;2.90;;
32633;SDS011;19043;51.012;5.648;2023-12-20T05:07:25;13.75;;;3.33;;
32633;SDS011;19043;51.012;5.648;2023-12-20T05:09:50;6.20;;;2.50;;
32633;SDS011;19043;51.012;5.648;2023-12-20T05:12:15;11.70;;;3.20;;
32633;SDS011;19043;51.012;5.648;2023-12-20T05:14:40;14.60;;;3.20;;
32633;SDS011;19043;51.012;5.648;2023-12-20T05:17:06;12.85;;;2.70;;
32633;SDS011;19043;51.012;5.648;2023-12-20T05:19:31;10.40;;;2.92;;
32633;SDS011;19043;51.012;5.648;2023-12-20T05:22:00;9.43;;;2.67;;
32633;SDS011;19043;51.012;5.648;2023-12-20T05:24:25;7.10;;;2.42;;
32633;SDS011;19043;51.012;5.648;2023-12-20T05:26:50;9.47;;;5.33;;
32633;SDS011;19043;51.012;5.648;2023-12-20T05:29:15;18.42;;;5.72;;
32633;SDS011;19043;51.012;5.648;2023-12-20T05:31:42;17.92;;;6.15;;
32633;SDS011;19043;51.012;5.648;2023-12-20T05:34:07;23.92;;;9.20;;
32633;SDS011;19043;51.012;5.648;2023-12-20T05:36:33;10.95;;;5.13;;
32633;SDS011;19043;51.012;5.648;2023-12-20T05:38:58;10.30;;;3.58;;
32633;SDS011;19043;51.012;5.648;2023-12-20T05:41:23;11.90;;;4.60;;
32633;SDS011;19043;51.012;5.648;2023-12-20T05:43:48;11.23;;;4.03;;
32633;SDS011;19043;51.012;5.648;2023-12-20T05:46:14;12.20;;;4.80;;
32633;SDS011;19043;51.012;5.648;2023-12-20T05:48:39;7.03;;;4.20;;
32633;SDS011;19043;51.012;5.648;2023-12-20T05:51:04;13.43;;;4.07;;
32633;SDS011;19043;51.012;5.648;2023-12-20T05:53:29;19.77;;;5.13;;
32633;SDS011;19043;51.012;5.648;2023-12-20T05:55:55;8.10;;;3.47;;
32633;SDS011;19043;51.012;5.648;2023-12-20T05:58:20;7.50;;;3.55;;
32633;SDS011;19043;51.012;5.648;2023-12-20T06:00:45;13.13;;;3.80;;
32633;SDS011;19043;51.012;5.648;2023-12-20T06:03:10;8.23;;;3.20;;
32633;SDS011;19043;51.012;5.648;2023-12-20T06:05:35;14.23;;;4.00;;
32633;SDS011;19043;51.012;5.648;2023-12-20T06:08:01;9.90;;;3.80;;
32633;SDS011;19043;51.012;5.648;2023-12-20T06:10:28;11.35;;;3.80;;
32633;SDS011;19043;51.012;5.648;2023-12-20T06:12:53;8.52;;;3.13;;
32633;SDS011;19043;51.012;5.648;2023-12-20T06:15:18;8.70;;;3.15;;
32633;SDS011;19043;51.012;5.648;2023-12-20T06:17:44;10.38;;;3.45;;
32633;SDS011;19043;51.012;5.648;2023-12-20T06:20:09;11.20;;;3.47;;
32633;SDS011;19043;51.012;5.648;2023-12-20T06:22:35;17.98;;;3.95;;
32633;SDS011;19043;51.012;5.648;2023-12-20T06:25:00;17.27;;;4.22;;
32633;SDS011;19043;51.012;5.648;2023-12-20T06:27:26;10.35;;;3.25;;
32633;SDS011;19043;51.012;5.648;2023-12-20T06:29:51;10.07;;;3.20;;
32633;SDS011;19043;51.012;5.648;2023-12-20T06:32:16;14.10;;;3.70;;
32633;SDS011;19043;51.012;5.648;2023-12-20T06:34:41;7.37;;;3.37;;
32633;SDS011;19043;51.012;5.648;2023-12-20T06:37:07;7.80;;;3.92;;
32633;SDS011;19043;51.012;5.648;2023-12-20T06:39:32;9.00;;;3.45;;
32633;SDS011;19043;51.012;5.648;2023-12-20T06:41:59;7.53;;;3.17;;
32633;SDS011;19043;51.012;5.648;2023-12-20T06:44:24;11.55;;;3.60;;
32633;SDS011;19043;51.012;5.648;2023-12-20T06:46:49;8.43;;;3.23;;
32633;SDS011;19043;51.012;5.648;2023-12-20T06:49:14;10.63;;;3.90;;
32633;SDS011;19043;51.012;5.648;2023-12-20T06:51:40;14.43;;;3.38;;
32633;SDS011;19043;51.012;5.648;2023-12-20T06:54:05;5.47;;;2.23;;
32633;SDS011;19043;51.012;5.648;2023-12-20T06:56:30;8.50;;;3.08;;
32633;SDS011;19043;51.012;5.648;2023-12-20T06:58:55;12.45;;;3.10;;
32633;SDS011;19043;51.012;5.648;2023-12-20T07:01:21;9.70;;;3.80;;
32633;SDS011;19043;51.012;5.648;2023-12-20T07:03:46;10.88;;;3.10;;
32633;SDS011;19043;51.012;5.648;2023-12-20T07:06:11;13.73;;;3.55;;
32633;SDS011;19043;51.012;5.648;2023-12-20T07:08:36;10.93;;;3.45;;
32633;SDS011;19043;51.012;5.648;2023-12-20T07:11:02;13.32;;;3.70;;
32633;SDS011;19043;51.012;5.648;2023-12-20T07:13:27;8.63;;;3.22;;
32633;SDS011;19043;51.012;5.648;2023-12-20T07:15:52;10.27;;;3.40;;
32633;SDS011;19043;51.012;5.648;2023-12-20T07:18:18;12.95;;;3.75;;
32633;SDS011;19043;51.012;5.648;2023-12-20T07:20:43;8.73;;;3.22;;
32633;SDS011;19043;51.012;5.648;2023-12-20T07:23:08;11.30;;;3.45;;
32633;SDS011;19043;51.012;5.648;2023-12-20T07:25:33;10.55;;;3.15;;
32633;SDS011;19043;51.012;5.648;2023-12-20T07:27:59;8.70;;;2.88;;
32633;SDS011;19043;51.012;5.648;2023-12-20T07:30:24;12.48;;;3.80;;
32633;SDS011;19043;51.012;5.648;2023-12-20T07:32:49;10.82;;;2.97;;
32633;SDS011;19043;51.012;5.648;2023-12-20T07:35:17;15.07;;;4.20;;
32633;SDS011;19043;51.012;5.648;2023-12-20T07:37:42;10.52;;;3.22;;
32633;SDS011;19043;51.012;5.648;2023-12-20T07:40:08;19.02;;;4.35;;
32633;SDS011;19043;51.012;5.648;2023-12-20T07:42:33;4.90;;;2.17;;
32633;SDS011;19043;51.012;5.648;2023-12-20T07:44:58;10.93;;;4.00;;
32633;SDS011;19043;51.012;5.648;2023-12-20T07:47:23;12.25;;;3.67;;
32633;SDS011;19043;51.012;5.648;2023-12-20T07:49:50;13.68;;;3.88;;
32633;SDS011;19043;51.012;5.648;2023-12-20T07:52:16;13.60;;;3.35;;
32633;SDS011;19043;51.012;5.648;2023-12-20T07:54:41;11.30;;;3.40;;
32633;SDS011;19043;51.012;5.648;2023-12-20T07:57:07;12.98;;;3.53;;
32633;SDS011;19043;51.012;5.648;2023-12-20T07:59:32;11.50;;;3.72;;
32633;SDS011;19043;51.012;5.648;2023-12-20T08:01:58;12.73;;;3.95;;
32633;SDS011;19043;51.012;5.648;2023-12-20T08:04:23;12.68;;;3.42;;
32633;SDS011;19043;51.012;5.648;2023-12-20T08:06:48;11.85;;;3.15;;
32633;SDS011;19043;51.012;5.648;2023-12-20T08:09:14;11.10;;;3.67;;
32633;SDS011;19043;51.012;5.648;2023-12-20T08:11:39;9.93;;;3.38;;
32633;SDS011;19043;51.012;5.648;2023-12-20T08:14:05;14.35;;;4.30;;
32633;SDS011;19043;51.012;5.648;2023-12-20T08:16:30;12.30;;;3.35;;
32633;SDS011;19043;51.012;5.648;2023-12-20T08:18:55;11.07;;;3.25;;
32633;SDS011;19043;51.012;5.648;2023-12-20T08:21:21;11.65;;;3.58;;
32633;SDS011;19043;51.012;5.648;2023-12-20T08:23:47;9.68;;;3.10;;
32633;SDS011;19043;51.012;5.648;2023-12-20T08:26:12;6.70;;;2.83;;
32633;SDS011;19043;51.012;5.648;2023-12-20T08:28:38;8.98;;;3.65;;
32633;SDS011;19043;51.012;5.648;2023-12-20T08:31:03;15.05;;;3.45;;
32633;SDS011;19043;51.012;5.648;2023-12-20T08:33:28;9.98;;;3.35;;
32633;SDS011;19043;51.012;5.648;2023-12-20T08:35:53;10.23;;;3.03;;
32633;SDS011;19043;51.012;5.648;2023-12-20T08:38:19;14.37;;;3.23;;
32633;SDS011;19043;51.012;5.648;2023-12-20T08:40:44;8.45;;;4.20;;
32633;SDS011;19043;51.012;5.648;2023-12-20T08:43:09;10.93;;;2.97;;
32633;SDS011;19043;51.012;5.648;2023-12-20T08:45:35;9.25;;;3.30;;
32633;SDS011;19043;51.012;5.648;2023-12-20T08:48:00;9.98;;;3.83;;
32633;SDS011;19043;51.012;5.648;2023-12-20T08:50:26;9.40;;;3.80;;
32633;SDS011;19043;51.012;5.648;2023-12-20T08:52:51;13.90;;;3.40;;
32633;SDS011;19043;51.012;5.648;2023-12-20T08:55:16;10.93;;;3.50;;
32633;SDS011;19043;51.012;5.648;2023-12-20T08:57:43;10.82;;;3.28;;
32633;SDS011;19043;51.012;5.648;2023-12-20T09:00:08;11.68;;;3.25;;
32633;SDS011;19043;51.012;5.648;2023-12-20T09:02:33;14.15;;;3.08;;
32633;SDS011;19043;51.012;5.648;2023-12-20T09:05:01;7.95;;;2.55;;
32633;SDS011;19043;51.012;5.648;2023-12-20T09:07:26;11.95;;;3.17;;
32633;SDS011;19043;51.012;5.648;2023-12-20T09:09:52;7.93;;;2.47;;
32633;SDS011;19043;51.012;5.648;2023-12-20T09:12:18;6.72;;;2.30;;
32633;SDS011;19043;51.012;5.648;2023-12-20T09:14:44;5.47;;;2.00;;
32633;SDS011;19043;51.012;5.648;2023-12-20T09:17:09;4.22;;;1.77;;
32633;SDS011;19043;51.012;5.648;2023-12-20T09:19:36;9.52;;;2.30;;
32633;SDS011;19043;51.012;5.648;2023-12-20T09:22:01;6.30;;;2.65;;
32633;SDS011;19043;51.012;5.648;2023-12-20T09:24:27;15.32;;;2.92;;
32633;SDS011;19043;51.012;5.648;2023-12-20T09:26:52;8.05;;;2.67;;
32633;SDS011;19043;51.012;5.648;2023-12-20T09:29:17;5.85;;;2.22;;
32633;SDS011;19043;51.012;5.648;2023-12-20T09:31:43;7.38;;;2.10;;
32633;SDS011;19043;51.012;5.648;2023-12-20T09:34:09;9.63;;;2.15;;
32633;SDS011;19043;51.012;5.648;2023-12-20T09:36:34;8.65;;;2.65;;
32633;SDS011;19043;51.012;5.648;2023-12-20T09:39:01;9.13;;;3.08;;
32633;SDS011;19043;51.012;5.648;2023-12-20T09:41:27;11.57;;;2.92;;
32633;SDS011;19043;51.012;5.648;2023-12-20T09:43:53;9.40;;;2.65;;
32633;SDS011;19043;51.012;5.648;2023-12-20T09:46:19;10.57;;;2.45;;
32633;SDS011;19043;51.012;5.648;2023-12-20T09:48:47;6.63;;;1.98;;
32633;SDS011;19043;51.012;5.648;2023-12-20T09:51:12;6.70;;;2.28;;
32633;SDS011;19043;51.012;5.648;2023-12-20T09:53:38;4.47;;;2.10;;
32633;SDS011;19043;51.012;5.648;2023-12-20T09:56:03;9.55;;;3.08;;
32633;SDS011;19043;51.012;5.648;2023-12-20T09:58:29;12.05;;;1.98;;
32633;SDS011;19043;51.012;5.648;2023-12-20T10:00:54;6.80;;;2.10;;
32633;SDS011;19043;51.012;5.648;2023-12-20T10:03:25;4.53;;;2.13;;
32633;SDS011;19043;51.012;5.648;2023-12-20T10:05:54;6.68;;;1.95;;
32633;SDS011;19043;51.012;5.648;2023-12-20T10:08:21;9.23;;;1.67;;
32633;SDS011;19043;51.012;5.648;2023-12-20T10:10:47;8.57;;;2.17;;
32633;SDS011;19043;51.012;5.648;2023-12-20T10:13:12;8.57;;;2.60;;
32633;SDS011;19043;51.012;5.648;2023-12-20T10:15:38;5.88;;;1.60;;
32633;SDS011;19043;51.012;5.648;2023-12-20T10:18:04;11.00;;;2.38;;
32633;SDS011;19043;51.012;5.648;2023-12-20T10:20:29;10.55;;;2.20;;
32633;SDS011;19043;51.012;5.648;2023-12-20T10:22:55;5.60;;;1.80;;
32633;SDS011;19043;51.012;5.648;2023-12-20T10:25:21;8.77;;;2.92;;
32633;SDS011;19043;51.012;5.648;2023-12-20T10:27:46;6.38;;;2.00;;
32633;SDS011;19043;51.012;5.648;2023-12-20T10:30:16;6.00;;;2.03;;
32633;SDS011;19043;51.012;5.648;2023-12-20T10:32:41;8.23;;;2.30;;
32633;SDS011;19043;51.012;5.648;2023-12-20T10:35:07;7.63;;;2.05;;
32633;SDS011;19043;51.012;5.648;2023-12-20T10:37:35;7.15;;;1.77;;
32633;SDS011;19043;51.012;5.648;2023-12-20T10:40:00;7.38;;;2.35;;
32633;SDS011;19043;51.012;5.648;2023-12-20T10:42:27;7.72;;;2.10;;
32633;SDS011;19043;51.012;5.648;2023-12-20T10:44:54;10.48;;;2.50;;
32633;SDS011;19043;51.012;5.648;2023-12-20T10:47:20;5.18;;;1.83;;
32633;SDS011;19043;51.012;5.648;2023-12-20T10:49:46;7.38;;;2.70;;
32633;SDS011;19043;51.012;5.648;2023-12-20T10:52:11;3.78;;;1.85;;
32633;SDS011;19043;51.012;5.648;2023-12-20T10:54:37;5.32;;;2.00;;
32633;SDS011;19043;51.012;5.648;2023-12-20T10:57:04;6.25;;;1.80;;
32633;SDS011;19043;51.012;5.648;2023-12-20T10:59:30;9.88;;;2.42;;
32633;SDS011;19043;51.012;5.648;2023-12-20T11:01:57;13.00;;;2.97;;
32633;SDS011;19043;51.012;5.648;2023-12-20T11:04:25;6.68;;;2.50;;
32633;SDS011;19043;51.012;5.648;2023-12-20T11:07:04;7.47;;;1.75;;
32633;SDS011;19043;51.012;5.648;2023-12-20T11:09:33;5.78;;;1.88;;
32633;SDS011;19043;51.012;5.648;2023-12-20T11:12:13;4.18;;;1.83;;
32633;SDS011;19043;51.012;5.648;2023-12-20T11:14:51;8.35;;;2.15;;
32633;SDS011;19043;51.012;5.648;2023-12-20T11:17:16;8.52;;;2.20;;
32633;SDS011;19043;51.012;5.648;2023-12-20T11:22:17;8.27;;;2.30;;
32633;SDS011;19043;51.012;5.648;2023-12-20T11:27:47;8.77;;;2.50;;
32633;SDS011;19043;51.012;5.648;2023-12-20T11:30:40;8.77;;;2.13;;
32633;SDS011;19043;51.012;5.648;2023-12-20T11:33:05;6.13;;;2.25;;
32633;SDS011;19043;51.012;5.648;2023-12-20T11:35:32;10.55;;;2.70;;
32633;SDS011;19043;51.012;5.648;2023-12-20T11:37:57;7.85;;;2.20;;
32633;SDS011;19043;51.012;5.648;2023-12-20T11:40:23;6.30;;;2.45;;
32633;SDS011;19043;51.012;5.648;2023-12-20T11:42:48;8.25;;;2.63;;
32633;SDS011;19043;51.012;5.648;2023-12-20T11:45:14;7.50;;;3.10;;
32633;SDS011;19043;51.012;5.648;2023-12-20T11:47:40;6.70;;;2.03;;
32633;SDS011;19043;51.012;5.648;2023-12-20T11:50:07;8.07;;;3.08;;
32633;SDS011;19043;51.012;5.648;2023-12-20T11:52:32;7.32;;;2.53;;
32633;SDS011;19043;51.012;5.648;2023-12-20T11:54:57;8.85;;;2.25;;
32633;SDS011;19043;51.012;5.648;2023-12-20T11:57:23;8.50;;;3.08;;
32633;SDS011;19043;51.012;5.648;2023-12-20T11:59:48;6.88;;;2.70;;
32633;SDS011;19043;51.012;5.648;2023-12-20T12:02:13;8.88;;;2.25;;
32633;SDS011;19043;51.012;5.648;2023-12-20T12:04:41;9.93;;;2.78;;
32633;SDS011;19043;51.012;5.648;2023-12-20T12:07:06;7.07;;;2.47;;
32633;SDS011;19043;51.012;5.648;2023-12-20T12:09:31;8.63;;;2.80;;
32633;SDS011;19043;51.012;5.648;2023-12-20T12:11:56;9.67;;;2.70;;
32633;SDS011;19043;51.012;5.648;2023-12-20T12:14:22;7.85;;;2.53;;
32633;SDS011;19043;51.012;5.648;2023-12-20T12:16:47;4.40;;;2.38;;
32633;SDS011;19043;51.012;5.648;2023-12-20T12:19:22;9.48;;;3.28;;
32633;SDS011;19043;51.012;5.648;2023-12-20T12:21:48;14.27;;;3.33;;
32633;SDS011;19043;51.012;5.648;2023-12-20T12:24:13;17.85;;;3.33;;
32633;SDS011;19043;51.012;5.648;2023-12-20T12:26:38;7.93;;;2.20;;
32633;SDS011;19043;51.012;5.648;2023-12-20T12:29:06;7.35;;;3.10;;
32633;SDS011;19043;51.012;5.648;2023-12-20T12:31:32;8.20;;;2.80;;
32633;SDS011;19043;51.012;5.648;2023-12-20T12:33:57;9.05;;;3.95;;
32633;SDS011;19043;51.012;5.648;2023-12-20T12:36:22;11.77;;;4.07;;
32633;SDS011;19043;51.012;5.648;2023-12-20T12:38:47;10.00;;;4.38;;
32633;SDS011;19043;51.012;5.648;2023-12-20T12:41:13;15.27;;;5.47;;
32633;SDS011;19043;51.012;5.648;2023-12-20T12:43:40;12.27;;;5.00;;
32633;SDS011;19043;51.012;5.648;2023-12-20T12:46:05;7.18;;;4.03;;
32633;SDS011;19043;51.012;5.648;2023-12-20T12:48:30;10.07;;;4.10;;
32633;SDS011;19043;51.012;5.648;2023-12-20T12:50:56;7.82;;;3.28;;
32633;SDS011;19043;51.012;5.648;2023-12-20T12:53:24;13.55;;;3.85;;
32633;SDS011;19043;51.012;5.648;2023-12-20T12:55:49;10.05;;;2.83;;
32633;SDS011;19043;51.012;5.648;2023-12-20T12:58:14;4.47;;;2.90;;
32633;SDS011;19043;51.012;5.648;2023-12-20T13:00:40;6.05;;;2.70;;
32633;SDS011;19043;51.012;5.648;2023-12-20T13:03:05;5.55;;;2.85;;
32633;SDS011;19043;51.012;5.648;2023-12-20T13:05:30;9.45;;;3.10;;
32633;SDS011;19043;51.012;5.648;2023-12-20T13:07:56;11.38;;;3.28;;
32633;SDS011;19043;51.012;5.648;2023-12-20T13:10:22;7.07;;;3.05;;
32633;SDS011;19043;51.012;5.648;2023-12-20T13:12:47;13.70;;;3.85;;
32633;SDS011;19043;51.012;5.648;2023-12-20T13:15:12;6.80;;;2.73;;
32633;SDS011;19043;51.012;5.648;2023-12-20T13:17:37;10.40;;;3.05;;
32633;SDS011;19043;51.012;5.648;2023-12-20T13:20:03;9.15;;;3.30;;
32633;SDS011;19043;51.012;5.648;2023-12-20T13:22:28;13.32;;;3.88;;
32633;SDS011;19043;51.012;5.648;2023-12-20T13:24:54;13.02;;;3.75;;
32633;SDS011;19043;51.012;5.648;2023-12-20T13:27:19;6.77;;;3.13;;
32633;SDS011;19043;51.012;5.648;2023-12-20T13:29:44;8.23;;;3.22;;
32633;SDS011;19043;51.012;5.648;2023-12-20T13:32:09;7.82;;;3.35;;
32633;SDS011;19043;51.012;5.648;2023-12-20T13:34:34;9.57;;;3.72;;
32633;SDS011;19043;51.012;5.648;2023-12-20T13:37:00;9.63;;;3.60;;
32633;SDS011;19043;51.012;5.648;2023-12-20T13:39:26;9.05;;;4.22;;
32633;SDS011;19043;51.012;5.648;2023-12-20T13:41:51;7.67;;;3.87;;
32633;SDS011;19043;51.012;5.648;2023-12-20T13:44:16;8.00;;;3.75;;
32633;SDS011;19043;51.012;5.648;2023-12-20T13:46:41;10.15;;;3.30;;
32633;SDS011;19043;51.012;5.648;2023-12-20T13:49:07;8.73;;;3.63;;
32633;SDS011;19043;51.012;5.648;2023-12-20T13:51:32;8.32;;;3.13;;
32633;SDS011;19043;51.012;5.648;2023-12-20T13:53:57;9.80;;;2.80;;
32633;SDS011;19043;51.012;5.648;2023-12-20T13:56:23;9.68;;;3.88;;
32633;SDS011;19043;51.012;5.648;2023-12-20T13:58:48;9.32;;;3.35;;
32633;SDS011;19043;51.012;5.648;2023-12-20T14:01:13;10.38;;;3.13;;
32633;SDS011;19043;51.012;5.648;2023-12-20T14:03:39;11.35;;;3.17;;
32633;SDS011;19043;51.012;5.648;2023-12-20T14:06:04;13.43;;;3.47;;
32633;SDS011;19043;51.012;5.648;2023-12-20T14:08:29;11.93;;;3.00;;
32633;SDS011;19043;51.012;5.648;2023-12-20T14:10:55;11.40;;;3.20;;
32633;SDS011;19043;51.012;5.648;2023-12-20T14:13:20;6.47;;;2.83;;
32633;SDS011;19043;51.012;5.648;2023-12-20T14:15:46;8.93;;;3.05;;
32633;SDS011;19043;51.012;5.648;2023-12-20T14:18:11;9.60;;;3.30;;
32633;SDS011;19043;51.012;5.648;2023-12-20T14:20:39;8.27;;;3.10;;
32633;SDS011;19043;51.012;5.648;2023-12-20T14:23:05;9.60;;;2.60;;
32633;SDS011;19043;51.012;5.648;2023-12-20T14:25:30;13.27;;;3.40;;
32633;SDS011;19043;51.012;5.648;2023-12-20T14:27:56;13.27;;;4.22;;
32633;SDS011;19043;51.012;5.648;2023-12-20T14:30:21;10.80;;;3.92;;
32633;SDS011;19043;51.012;5.648;2023-12-20T14:32:47;8.70;;;3.97;;
32633;SDS011;19043;51.012;5.648;2023-12-20T14:35:13;9.73;;;3.15;;
32633;SDS011;19043;51.012;5.648;2023-12-20T14:37:38;15.48;;;3.72;;
32633;SDS011;19043;51.012;5.648;2023-12-20T14:40:06;8.40;;;3.45;;